sensor_id;sensor_type;location;lat;lon;timestamp;P1;durP1;ratioP1;P2;durP2;ratioP2
19347;SDS011;9810;52.480;9.806;2024-02-15T00:02:22;15.33;;;9.00;;
19347;SDS011;9810;52.480;9.806;2024-02-15T00:04:50;10.23;;;8.57;;
19347;SDS011;9810;52.480;9.806;2024-02-15T00:07:17;10.83;;;8.70;;
19347;SDS011;9810;52.480;9.806;2024-02-15T00:09:47;13.10;;;9.53;;
19347;SDS011;9810;52.480;9.806;2024-02-15T00:12:16;14.33;;;9.03;;
19347;SDS011;9810;52.480;9.806;2024-02-15T00:14:43;11.30;;;9.03;;
19347;SDS011;9810;52.480;9.806;2024-02-15T00:17:11;15.97;;;10.63;;
19347;SDS011;9810;52.480;9.806;2024-02-15T00:19:38;10.80;;;8.83;;
19347;SDS011;9810;52.480;9.806;2024-02-15T00:22:06;10.77;;;9.00;;
19347;SDS011;9810;52.480;9.806;2024-02-15T00:24:36;12.57;;;8.87;;
19347;SDS011;9810;52.480;9.806;2024-02-15T00:27:03;13.90;;;9.70;;
19347;SDS011;9810;52.480;9.806;2024-02-15T00:29:32;13.60;;;10.27;;
19347;SDS011;9810;52.480;9.806;2024-02-15T00:32:00;12.07;;;10.13;;
19347;SDS011;9810;52.480;9.806;2024-02-15T00:34:28;13.23;;;10.13;;
19347;SDS011;9810;52.480;9.806;2024-02-15T00:36:55;14.00;;;10.20;;
19347;SDS011;9810;52.480;9.806;2024-02-15T00:39:23;11.30;;;8.73;;
19347;SDS011;9810;52.480;9.806;2024-02-15T00:41:50;12.67;;;9.90;;
19347;SDS011;9810;52.480;9.806;2024-02-15T00:44:17;12.00;;;9.53;;
19347;SDS011;9810;52.480;9.806;2024-02-15T00:46:46;13.63;;;9.60;;
19347;SDS011;9810;52.480;9.806;2024-02-15T00:49:14;11.17;;;8.83;;
19347;SDS011;9810;52.480;9.806;2024-02-15T00:51:41;14.50;;;9.93;;
19347;SDS011;9810;52.480;9.806;2024-02-15T00:54:08;13.07;;;8.73;;
19347;SDS011;9810;52.480;9.806;2024-02-15T00:56:35;10.83;;;8.83;;
19347;SDS011;9810;52.480;9.806;2024-02-15T00:59:03;9.97;;;8.07;;
19347;SDS011;9810;52.480;9.806;2024-02-15T01:01:30;10.17;;;8.10;;
19347;SDS011;9810;52.480;9.806;2024-02-15T01:03:59;11.27;;;8.10;;
19347;SDS011;9810;52.480;9.806;2024-02-15T01:06:26;13.80;;;10.23;;
19347;SDS011;9810;52.480;9.806;2024-02-15T01:08:53;11.10;;;9.00;;
19347;SDS011;9810;52.480;9.806;2024-02-15T01:11:20;12.40;;;8.80;;
19347;SDS011;9810;52.480;9.806;2024-02-15T01:13:49;11.07;;;8.17;;
19347;SDS011;9810;52.480;9.806;2024-02-15T01:16:18;11.03;;;9.10;;
19347;SDS011;9810;52.480;9.806;2024-02-15T01:18:46;14.27;;;10.17;;
19347;SDS011;9810;52.480;9.806;2024-02-15T01:21:15;15.53;;;9.53;;
19347;SDS011;9810;52.480;9.806;2024-02-15T01:23:42;10.77;;;7.90;;
19347;SDS011;9810;52.480;9.806;2024-02-15T01:26:11;11.93;;;8.70;;
19347;SDS011;9810;52.480;9.806;2024-02-15T01:28:39;9.43;;;7.80;;
19347;SDS011;9810;52.480;9.806;2024-02-15T01:31:08;12.33;;;8.67;;
19347;SDS011;9810;52.480;9.806;2024-02-15T01:33:36;11.20;;;9.03;;
19347;SDS011;9810;52.480;9.806;2024-02-15T01:36:03;13.60;;;8.70;;
19347;SDS011;9810;52.480;9.806;2024-02-15T01:38:34;13.73;;;9.60;;
19347;SDS011;9810;52.480;9.806;2024-02-15T01:41:01;11.03;;;8.60;;
19347;SDS011;9810;52.480;9.806;2024-02-15T01:43:28;12.20;;;9.23;;
19347;SDS011;9810;52.480;9.806;2024-02-15T01:45:56;14.03;;;9.90;;
19347;SDS011;9810;52.480;9.806;2024-02-15T01:48:27;12.40;;;9.20;;
19347;SDS011;9810;52.480;9.806;2024-02-15T01:50:54;13.27;;;8.77;;
19347;SDS011;9810;52.480;9.806;2024-02-15T01:53:21;11.60;;;9.33;;
19347;SDS011;9810;52.480;9.806;2024-02-15T01:55:50;10.73;;;8.23;;
19347;SDS011;9810;52.480;9.806;2024-02-15T01:58:19;9.80;;;8.20;;
19347;SDS011;9810;52.480;9.806;2024-02-15T02:00:47;10.97;;;7.97;;
19347;SDS011;9810;52.480;9.806;2024-02-15T02:03:14;10.30;;;7.83;;
19347;SDS011;9810;52.480;9.806;2024-02-15T02:05:42;11.23;;;8.63;;
19347;SDS011;9810;52.480;9.806;2024-02-15T02:08:09;10.20;;;7.47;;
19347;SDS011;9810;52.480;9.806;2024-02-15T02:10:36;8.17;;;6.93;;
19347;SDS011;9810;52.480;9.806;2024-02-15T02:13:05;10.00;;;7.73;;
19347;SDS011;9810;52.480;9.806;2024-02-15T02:15:32;10.10;;;7.33;;
19347;SDS011;9810;52.480;9.806;2024-02-15T02:18:02;8.77;;;6.80;;
19347;SDS011;9810;52.480;9.806;2024-02-15T02:20:31;10.97;;;8.30;;
19347;SDS011;9810;52.480;9.806;2024-02-15T02:23:01;13.50;;;8.00;;
19347;SDS011;9810;52.480;9.806;2024-02-15T02:25:34;9.47;;;6.93;;
19347;SDS011;9810;52.480;9.806;2024-02-15T02:28:01;8.60;;;7.10;;
19347;SDS011;9810;52.480;9.806;2024-02-15T02:30:28;7.47;;;6.47;;
19347;SDS011;9810;52.480;9.806;2024-02-15T02:32:56;8.70;;;6.80;;
19347;SDS011;9810;52.480;9.806;2024-02-15T02:35:24;7.13;;;5.90;;
19347;SDS011;9810;52.480;9.806;2024-02-15T02:37:52;7.53;;;6.33;;
19347;SDS011;9810;52.480;9.806;2024-02-15T02:40:19;11.43;;;6.47;;
19347;SDS011;9810;52.480;9.806;2024-02-15T02:42:49;8.70;;;6.23;;
19347;SDS011;9810;52.480;9.806;2024-02-15T02:45:17;7.20;;;5.90;;
19347;SDS011;9810;52.480;9.806;2024-02-15T02:47:45;8.53;;;6.73;;
19347;SDS011;9810;52.480;9.806;2024-02-15T02:50:12;8.20;;;6.13;;
19347;SDS011;9810;52.480;9.806;2024-02-15T02:52:39;7.43;;;5.77;;
19347;SDS011;9810;52.480;9.806;2024-02-15T02:55:07;8.37;;;5.93;;
19347;SDS011;9810;52.480;9.806;2024-02-15T02:57:34;7.60;;;6.27;;
19347;SDS011;9810;52.480;9.806;2024-02-15T03:00:05;9.63;;;6.20;;
19347;SDS011;9810;52.480;9.806;2024-02-15T03:02:35;7.77;;;6.23;;
19347;SDS011;9810;52.480;9.806;2024-02-15T03:05:03;8.40;;;5.57;;
19347;SDS011;9810;52.480;9.806;2024-02-15T03:07:32;7.07;;;5.90;;
19347;SDS011;9810;52.480;9.806;2024-02-15T03:10:00;7.73;;;6.30;;
19347;SDS011;9810;52.480;9.806;2024-02-15T03:12:27;8.60;;;5.47;;
19347;SDS011;9810;52.480;9.806;2024-02-15T03:14:55;6.33;;;5.63;;
19347;SDS011;9810;52.480;9.806;2024-02-15T03:17:24;8.77;;;4.97;;
19347;SDS011;9810;52.480;9.806;2024-02-15T03:19:51;5.77;;;4.57;;
19347;SDS011;9810;52.480;9.806;2024-02-15T03:22:18;6.10;;;5.17;;
19347;SDS011;9810;52.480;9.806;2024-02-15T03:24:46;6.13;;;5.00;;
19347;SDS011;9810;52.480;9.806;2024-02-15T03:27:13;5.07;;;4.37;;
19347;SDS011;9810;52.480;9.806;2024-02-15T03:29:40;7.37;;;4.87;;
19347;SDS011;9810;52.480;9.806;2024-02-15T03:32:07;5.13;;;4.63;;
19347;SDS011;9810;52.480;9.806;2024-02-15T03:34:37;5.03;;;4.40;;
19347;SDS011;9810;52.480;9.806;2024-02-15T03:37:05;5.80;;;4.63;;
19347;SDS011;9810;52.480;9.806;2024-02-15T03:39:32;6.97;;;5.60;;
19347;SDS011;9810;52.480;9.806;2024-02-15T03:41:59;7.10;;;5.33;;
19347;SDS011;9810;52.480;9.806;2024-02-15T03:44:26;6.83;;;5.10;;
19347;SDS011;9810;52.480;9.806;2024-02-15T03:46:55;5.63;;;5.03;;
19347;SDS011;9810;52.480;9.806;2024-02-15T03:49:24;7.03;;;5.33;;
19347;SDS011;9810;52.480;9.806;2024-02-15T03:51:53;7.40;;;4.93;;
19347;SDS011;9810;52.480;9.806;2024-02-15T03:54:21;6.87;;;5.57;;
19347;SDS011;9810;52.480;9.806;2024-02-15T03:56:48;6.83;;;4.97;;
19347;SDS011;9810;52.480;9.806;2024-02-15T03:59:17;7.00;;;5.43;;
19347;SDS011;9810;52.480;9.806;2024-02-15T04:01:50;7.73;;;4.90;;
19347;SDS011;9810;52.480;9.806;2024-02-15T04:04:17;6.03;;;5.27;;
19347;SDS011;9810;52.480;9.806;2024-02-15T04:06:46;7.57;;;6.23;;
19347;SDS011;9810;52.480;9.806;2024-02-15T04:09:14;8.27;;;6.23;;
19347;SDS011;9810;52.480;9.806;2024-02-15T04:11:42;8.50;;;5.80;;
19347;SDS011;9810;52.480;9.806;2024-02-15T04:14:12;7.87;;;5.87;;
19347;SDS011;9810;52.480;9.806;2024-02-15T04:16:39;8.37;;;5.37;;
19347;SDS011;9810;52.480;9.806;2024-02-15T04:19:06;8.47;;;5.30;;
19347;SDS011;9810;52.480;9.806;2024-02-15T04:21:33;8.73;;;6.23;;
19347;SDS011;9810;52.480;9.806;2024-02-15T04:24:01;9.23;;;6.00;;
19347;SDS011;9810;52.480;9.806;2024-02-15T04:26:29;7.20;;;5.83;;
19347;SDS011;9810;52.480;9.806;2024-02-15T04:28:58;9.13;;;6.50;;
19347;SDS011;9810;52.480;9.806;2024-02-15T04:31:25;9.90;;;7.17;;
19347;SDS011;9810;52.480;9.806;2024-02-15T04:33:53;8.70;;;5.90;;
19347;SDS011;9810;52.480;9.806;2024-02-15T04:36:20;7.90;;;6.37;;
19347;SDS011;9810;52.480;9.806;2024-02-15T04:38:50;6.30;;;5.07;;
19347;SDS011;9810;52.480;9.806;2024-02-15T04:41:17;8.57;;;6.13;;
19347;SDS011;9810;52.480;9.806;2024-02-15T04:43:49;8.10;;;6.60;;
19347;SDS011;9810;52.480;9.806;2024-02-15T04:46:17;8.73;;;6.23;;
19347;SDS011;9810;52.480;9.806;2024-02-15T04:48:46;8.70;;;6.67;;
19347;SDS011;9810;52.480;9.806;2024-02-15T04:51:15;8.77;;;7.00;;
19347;SDS011;9810;52.480;9.806;2024-02-15T04:53:42;9.07;;;6.47;;
19347;SDS011;9810;52.480;9.806;2024-02-15T04:56:11;7.37;;;6.27;;
19347;SDS011;9810;52.480;9.806;2024-02-15T04:58:39;7.97;;;6.03;;
19347;SDS011;9810;52.480;9.806;2024-02-15T05:01:13;9.67;;;7.30;;
19347;SDS011;9810;52.480;9.806;2024-02-15T05:03:40;12.53;;;8.00;;
19347;SDS011;9810;52.480;9.806;2024-02-15T05:06:07;9.73;;;6.70;;
19347;SDS011;9810;52.480;9.806;2024-02-15T05:08:35;10.00;;;7.30;;
19347;SDS011;9810;52.480;9.806;2024-02-15T05:11:07;10.33;;;7.23;;
19347;SDS011;9810;52.480;9.806;2024-02-15T05:13:38;8.93;;;6.70;;
19347;SDS011;9810;52.480;9.806;2024-02-15T05:16:05;8.27;;;6.23;;
19347;SDS011;9810;52.480;9.806;2024-02-15T05:18:34;11.73;;;7.63;;
19347;SDS011;9810;52.480;9.806;2024-02-15T05:21:03;9.23;;;6.93;;
19347;SDS011;9810;52.480;9.806;2024-02-15T05:23:34;9.97;;;6.17;;
19347;SDS011;9810;52.480;9.806;2024-02-15T05:26:01;8.47;;;6.37;;
19347;SDS011;9810;52.480;9.806;2024-02-15T05:28:29;9.23;;;6.93;;
19347;SDS011;9810;52.480;9.806;2024-02-15T05:31:10;9.10;;;6.90;;
19347;SDS011;9810;52.480;9.806;2024-02-15T05:33:39;8.40;;;6.00;;
19347;SDS011;9810;52.480;9.806;2024-02-15T05:36:09;7.40;;;6.37;;
19347;SDS011;9810;52.480;9.806;2024-02-15T05:38:36;7.43;;;5.17;;
19347;SDS011;9810;52.480;9.806;2024-02-15T05:41:03;9.93;;;6.33;;
19347;SDS011;9810;52.480;9.806;2024-02-15T05:43:32;7.33;;;5.33;;
19347;SDS011;9810;52.480;9.806;2024-02-15T05:46:01;7.30;;;5.77;;
19347;SDS011;9810;52.480;9.806;2024-02-15T05:48:28;6.90;;;5.60;;
19347;SDS011;9810;52.480;9.806;2024-02-15T05:50:57;8.37;;;6.13;;
19347;SDS011;9810;52.480;9.806;2024-02-15T05:53:25;9.77;;;5.90;;
19347;SDS011;9810;52.480;9.806;2024-02-15T05:55:54;8.17;;;5.93;;
19347;SDS011;9810;52.480;9.806;2024-02-15T05:58:23;12.27;;;6.63;;
19347;SDS011;9810;52.480;9.806;2024-02-15T06:00:50;8.87;;;6.30;;
19347;SDS011;9810;52.480;9.806;2024-02-15T06:03:18;7.83;;;6.30;;
19347;SDS011;9810;52.480;9.806;2024-02-15T06:05:47;11.30;;;6.80;;
19347;SDS011;9810;52.480;9.806;2024-02-15T06:08:16;7.00;;;5.70;;
19347;SDS011;9810;52.480;9.806;2024-02-15T06:10:45;7.13;;;5.60;;
19347;SDS011;9810;52.480;9.806;2024-02-15T06:13:12;8.03;;;6.33;;
19347;SDS011;9810;52.480;9.806;2024-02-15T06:15:39;8.80;;;5.93;;
19347;SDS011;9810;52.480;9.806;2024-02-15T06:18:06;7.90;;;6.13;;
19347;SDS011;9810;52.480;9.806;2024-02-15T06:20:37;9.30;;;6.50;;
19347;SDS011;9810;52.480;9.806;2024-02-15T06:23:04;11.37;;;6.77;;
19347;SDS011;9810;52.480;9.806;2024-02-15T06:25:34;8.97;;;7.33;;
19347;SDS011;9810;52.480;9.806;2024-02-15T06:28:02;8.53;;;6.50;;
19347;SDS011;9810;52.480;9.806;2024-02-15T06:30:38;11.97;;;8.30;;
19347;SDS011;9810;52.480;9.806;2024-02-15T06:33:23;10.57;;;8.20;;
19347;SDS011;9810;52.480;9.806;2024-02-15T06:36:08;11.67;;;8.13;;
19347;SDS011;9810;52.480;9.806;2024-02-15T06:38:53;11.60;;;7.90;;
19347;SDS011;9810;52.480;9.806;2024-02-15T06:41:39;9.67;;;7.10;;
19347;SDS011;9810;52.480;9.806;2024-02-15T06:44:06;12.30;;;8.87;;
19347;SDS011;9810;52.480;9.806;2024-02-15T06:46:34;14.77;;;9.23;;
19347;SDS011;9810;52.480;9.806;2024-02-15T06:49:01;12.97;;;9.63;;
19347;SDS011;9810;52.480;9.806;2024-02-15T06:51:30;13.90;;;9.63;;
19347;SDS011;9810;52.480;9.806;2024-02-15T06:53:57;12.30;;;9.03;;
19347;SDS011;9810;52.480;9.806;2024-02-15T06:56:24;14.37;;;10.07;;
19347;SDS011;9810;52.480;9.806;2024-02-15T06:58:53;13.90;;;9.53;;
19347;SDS011;9810;52.480;9.806;2024-02-15T07:01:20;18.38;;;12.65;;
19347;SDS011;9810;52.480;9.806;2024-02-15T07:03:48;18.63;;;10.80;;
19347;SDS011;9810;52.480;9.806;2024-02-15T07:06:16;19.63;;;11.33;;
19347;SDS011;9810;52.480;9.806;2024-02-15T07:08:43;16.97;;;11.20;;
19347;SDS011;9810;52.480;9.806;2024-02-15T07:11:11;16.43;;;10.73;;
19347;SDS011;9810;52.480;9.806;2024-02-15T07:13:38;18.13;;;11.10;;
19347;SDS011;9810;52.480;9.806;2024-02-15T07:16:08;15.27;;;10.03;;
19347;SDS011;9810;52.480;9.806;2024-02-15T07:18:36;14.27;;;9.10;;
19347;SDS011;9810;52.480;9.806;2024-02-15T07:21:04;19.30;;;11.43;;
19347;SDS011;9810;52.480;9.806;2024-02-15T07:23:36;17.67;;;11.07;;
19347;SDS011;9810;52.480;9.806;2024-02-15T07:26:03;16.00;;;11.13;;
19347;SDS011;9810;52.480;9.806;2024-02-15T07:28:30;21.80;;;12.30;;
19347;SDS011;9810;52.480;9.806;2024-02-15T07:30:57;16.87;;;11.27;;
19347;SDS011;9810;52.480;9.806;2024-02-15T07:33:29;18.27;;;10.40;;
19347;SDS011;9810;52.480;9.806;2024-02-15T07:35:56;16.37;;;11.27;;
19347;SDS011;9810;52.480;9.806;2024-02-15T07:38:23;19.53;;;10.97;;
19347;SDS011;9810;52.480;9.806;2024-02-15T07:40:50;20.87;;;11.00;;
19347;SDS011;9810;52.480;9.806;2024-02-15T07:43:18;21.20;;;11.27;;
19347;SDS011;9810;52.480;9.806;2024-02-15T07:45:45;19.30;;;11.03;;
19347;SDS011;9810;52.480;9.806;2024-02-15T07:48:14;21.00;;;11.03;;
19347;SDS011;9810;52.480;9.806;2024-02-15T07:50:43;16.77;;;10.87;;
19347;SDS011;9810;52.480;9.806;2024-02-15T07:53:10;16.80;;;11.47;;
19347;SDS011;9810;52.480;9.806;2024-02-15T07:55:38;19.03;;;11.30;;
19347;SDS011;9810;52.480;9.806;2024-02-15T07:58:06;17.33;;;10.17;;
19347;SDS011;9810;52.480;9.806;2024-02-15T08:00:33;16.03;;;10.00;;
19347;SDS011;9810;52.480;9.806;2024-02-15T08:03:02;14.47;;;9.37;;
19347;SDS011;9810;52.480;9.806;2024-02-15T08:05:29;16.00;;;10.40;;
19347;SDS011;9810;52.480;9.806;2024-02-15T08:07:58;20.43;;;9.93;;
19347;SDS011;9810;52.480;9.806;2024-02-15T08:10:25;19.17;;;10.23;;
19347;SDS011;9810;52.480;9.806;2024-02-15T08:12:53;14.93;;;9.27;;
19347;SDS011;9810;52.480;9.806;2024-02-15T08:15:23;15.43;;;8.97;;
19347;SDS011;9810;52.480;9.806;2024-02-15T08:17:52;17.27;;;9.60;;
19347;SDS011;9810;52.480;9.806;2024-02-15T08:20:20;16.07;;;9.13;;
19347;SDS011;9810;52.480;9.806;2024-02-15T08:22:47;15.73;;;8.37;;
19347;SDS011;9810;52.480;9.806;2024-02-15T08:25:16;15.03;;;8.60;;
19347;SDS011;9810;52.480;9.806;2024-02-15T08:27:46;13.13;;;8.90;;
19347;SDS011;9810;52.480;9.806;2024-02-15T08:30:15;16.53;;;7.70;;
19347;SDS011;9810;52.480;9.806;2024-02-15T08:32:43;11.87;;;8.47;;
19347;SDS011;9810;52.480;9.806;2024-02-15T08:35:11;15.20;;;7.97;;
19347;SDS011;9810;52.480;9.806;2024-02-15T08:37:39;11.97;;;7.10;;
19347;SDS011;9810;52.480;9.806;2024-02-15T08:40:08;14.33;;;8.00;;
19347;SDS011;9810;52.480;9.806;2024-02-15T08:42:38;12.90;;;6.67;;
19347;SDS011;9810;52.480;9.806;2024-02-15T08:45:06;14.17;;;7.27;;
19347;SDS011;9810;52.480;9.806;2024-02-15T08:47:35;10.60;;;6.57;;
19347;SDS011;9810;52.480;9.806;2024-02-15T08:50:04;9.27;;;6.17;;
19347;SDS011;9810;52.480;9.806;2024-02-15T08:52:31;15.07;;;6.37;;
19347;SDS011;9810;52.480;9.806;2024-02-15T08:54:58;13.00;;;6.33;;
19347;SDS011;9810;52.480;9.806;2024-02-15T08:57:26;10.83;;;5.90;;
19347;SDS011;9810;52.480;9.806;2024-02-15T08:59:55;9.13;;;5.83;;
19347;SDS011;9810;52.480;9.806;2024-02-15T09:02:22;9.20;;;5.27;;
19347;SDS011;9810;52.480;9.806;2024-02-15T09:04:49;8.30;;;4.77;;
19347;SDS011;9810;52.480;9.806;2024-02-15T09:07:16;12.20;;;4.57;;
19347;SDS011;9810;52.480;9.806;2024-02-15T09:09:43;10.03;;;4.10;;
19347;SDS011;9810;52.480;9.806;2024-02-15T09:12:12;6.43;;;3.80;;
19347;SDS011;9810;52.480;9.806;2024-02-15T09:14:39;7.80;;;3.93;;
19347;SDS011;9810;52.480;9.806;2024-02-15T09:17:08;7.83;;;3.63;;
19347;SDS011;9810;52.480;9.806;2024-02-15T09:19:35;5.77;;;3.07;;
19347;SDS011;9810;52.480;9.806;2024-02-15T09:22:02;6.50;;;3.13;;
19347;SDS011;9810;52.480;9.806;2024-02-15T09:24:31;6.57;;;3.10;;
19347;SDS011;9810;52.480;9.806;2024-02-15T09:26:59;3.97;;;2.30;;
19347;SDS011;9810;52.480;9.806;2024-02-15T09:29:27;4.00;;;1.87;;
19347;SDS011;9810;52.480;9.806;2024-02-15T09:31:55;3.00;;;1.87;;
19347;SDS011;9810;52.480;9.806;2024-02-15T09:34:24;5.80;;;2.00;;
19347;SDS011;9810;52.480;9.806;2024-02-15T09:36:51;4.83;;;2.20;;
19347;SDS011;9810;52.480;9.806;2024-02-15T09:39:19;2.77;;;1.87;;
19347;SDS011;9810;52.480;9.806;2024-02-15T09:41:46;5.97;;;2.43;;
19347;SDS011;9810;52.480;9.806;2024-02-15T09:44:19;2.80;;;2.17;;
19347;SDS011;9810;52.480;9.806;2024-02-15T09:46:46;3.47;;;1.80;;
19347;SDS011;9810;52.480;9.806;2024-02-15T09:49:18;3.30;;;1.70;;
19347;SDS011;9810;52.480;9.806;2024-02-15T09:51:47;3.50;;;1.80;;
19347;SDS011;9810;52.480;9.806;2024-02-15T09:54:15;3.93;;;1.83;;
19347;SDS011;9810;52.480;9.806;2024-02-15T09:56:47;2.20;;;1.37;;
19347;SDS011;9810;52.480;9.806;2024-02-15T09:59:14;2.27;;;1.30;;
19347;SDS011;9810;52.480;9.806;2024-02-15T10:01:43;5.60;;;1.77;;
19347;SDS011;9810;52.480;9.806;2024-02-15T10:04:13;2.57;;;1.60;;
19347;SDS011;9810;52.480;9.806;2024-02-15T10:06:41;3.93;;;1.73;;
19347;SDS011;9810;52.480;9.806;2024-02-15T10:09:24;2.97;;;1.30;;
19347;SDS011;9810;52.480;9.806;2024-02-15T10:11:55;3.90;;;1.40;;
19347;SDS011;9810;52.480;9.806;2024-02-15T10:14:23;1.40;;;0.90;;
19347;SDS011;9810;52.480;9.806;2024-02-15T10:16:51;3.03;;;1.47;;
19347;SDS011;9810;52.480;9.806;2024-02-15T10:19:19;3.43;;;1.40;;
19347;SDS011;9810;52.480;9.806;2024-02-15T10:21:51;1.60;;;1.20;;
19347;SDS011;9810;52.480;9.806;2024-02-15T10:24:20;1.97;;;1.13;;
19347;SDS011;9810;52.480;9.806;2024-02-15T10:26:50;1.13;;;1.00;;
19347;SDS011;9810;52.480;9.806;2024-02-15T10:29:19;2.83;;;1.10;;
19347;SDS011;9810;52.480;9.806;2024-02-15T10:31:53;2.37;;;1.00;;
19347;SDS011;9810;52.480;9.806;2024-02-15T10:34:20;3.07;;;1.20;;
19347;SDS011;9810;52.480;9.806;2024-02-15T10:36:48;4.50;;;0.93;;
19347;SDS011;9810;52.480;9.806;2024-02-15T10:39:15;1.77;;;1.00;;
19347;SDS011;9810;52.480;9.806;2024-02-15T10:41:47;2.63;;;1.23;;
19347;SDS011;9810;52.480;9.806;2024-02-15T10:44:17;2.73;;;1.30;;
19347;SDS011;9810;52.480;9.806;2024-02-15T10:46:45;2.40;;;1.20;;
19347;SDS011;9810;52.480;9.806;2024-02-15T10:49:16;5.90;;;1.90;;
19347;SDS011;9810;52.480;9.806;2024-02-15T10:51:44;2.43;;;1.40;;
19347;SDS011;9810;52.480;9.806;2024-02-15T10:54:15;1.33;;;1.20;;
19347;SDS011;9810;52.480;9.806;2024-02-15T10:56:43;3.50;;;1.10;;
19347;SDS011;9810;52.480;9.806;2024-02-15T10:59:15;1.50;;;1.03;;
19347;SDS011;9810;52.480;9.806;2024-02-15T11:01:45;3.43;;;1.20;;
19347;SDS011;9810;52.480;9.806;2024-02-15T11:04:14;3.60;;;1.30;;
19347;SDS011;9810;52.480;9.806;2024-02-15T11:06:42;7.43;;;1.47;;
19347;SDS011;9810;52.480;9.806;2024-02-15T11:09:10;3.93;;;1.40;;
19347;SDS011;9810;52.480;9.806;2024-02-15T11:11:39;1.63;;;1.37;;
19347;SDS011;9810;52.480;9.806;2024-02-15T11:14:25;2.83;;;1.67;;
19347;SDS011;9810;52.480;9.806;2024-02-15T11:16:55;5.37;;;1.67;;
19347;SDS011;9810;52.480;9.806;2024-02-15T11:19:43;3.90;;;1.30;;
19347;SDS011;9810;52.480;9.806;2024-02-15T11:22:12;2.63;;;1.57;;
19347;SDS011;9810;52.480;9.806;2024-02-15T11:24:45;2.43;;;1.60;;
19347;SDS011;9810;52.480;9.806;2024-02-15T11:27:13;4.27;;;1.40;;
19347;SDS011;9810;52.480;9.806;2024-02-15T11:29:50;2.47;;;1.47;;
19347;SDS011;9810;52.480;9.806;2024-02-15T11:32:38;3.97;;;1.97;;
19347;SDS011;9810;52.480;9.806;2024-02-15T11:35:10;2.47;;;1.40;;
19347;SDS011;9810;52.480;9.806;2024-02-15T11:46:05;2.83;;;1.67;;
19347;SDS011;9810;52.480;9.806;2024-02-15T11:48:35;3.03;;;1.27;;
19347;SDS011;9810;52.480;9.806;2024-02-15T11:51:04;1.73;;;1.60;;
19347;SDS011;9810;52.480;9.806;2024-02-15T11:53:32;3.20;;;1.50;;
19347;SDS011;9810;52.480;9.806;2024-02-15T11:55:59;1.80;;;1.20;;
19347;SDS011;9810;52.480;9.806;2024-02-15T11:58:27;2.90;;;1.63;;
19347;SDS011;9810;52.480;9.806;2024-02-15T12:01:07;3.63;;;1.70;;
19347;SDS011;9810;52.480;9.806;2024-02-15T12:03:54;4.27;;;1.43;;
19347;SDS011;9810;52.480;9.806;2024-02-15T12:06:39;5.00;;;1.53;;
19347;SDS011;9810;52.480;9.806;2024-02-15T12:09:36;5.10;;;1.60;;
19347;SDS011;9810;52.480;9.806;2024-02-15T12:12:21;1.43;;;1.30;;
19347;SDS011;9810;52.480;9.806;2024-02-15T12:15:14;2.23;;;1.27;;
19347;SDS011;9810;52.480;9.806;2024-02-15T12:18:13;2.03;;;0.93;;
19347;SDS011;9810;52.480;9.806;2024-02-15T12:20:59;7.00;;;1.97;;
19347;SDS011;9810;52.480;9.806;2024-02-15T12:23:27;3.60;;;1.50;;
19347;SDS011;9810;52.480;9.806;2024-02-15T12:25:55;4.40;;;1.50;;
19347;SDS011;9810;52.480;9.806;2024-02-15T12:28:23;0.97;;;0.87;;
19347;SDS011;9810;52.480;9.806;2024-02-15T12:30:54;2.33;;;1.20;;
19347;SDS011;9810;52.480;9.806;2024-02-15T12:33:22;3.07;;;1.40;;
19347;SDS011;9810;52.480;9.806;2024-02-15T12:35:49;2.40;;;1.40;;
19347;SDS011;9810;52.480;9.806;2024-02-15T12:38:18;1.13;;;1.10;;
19347;SDS011;9810;52.480;9.806;2024-02-15T12:40:46;4.13;;;1.67;;
19347;SDS011;9810;52.480;9.806;2024-02-15T12:43:14;2.53;;;1.17;;
19347;SDS011;9810;52.480;9.806;2024-02-15T12:45:42;3.50;;;1.10;;
19347;SDS011;9810;52.480;9.806;2024-02-15T12:48:09;3.00;;;1.20;;
19347;SDS011;9810;52.480;9.806;2024-02-15T12:50:36;2.83;;;1.10;;
19347;SDS011;9810;52.480;9.806;2024-02-15T12:53:04;2.40;;;1.07;;
19347;SDS011;9810;52.480;9.806;2024-02-15T12:55:35;3.10;;;1.60;;
19347;SDS011;9810;52.480;9.806;2024-02-15T12:58:03;3.00;;;1.33;;
19347;SDS011;9810;52.480;9.806;2024-02-15T13:00:34;1.23;;;1.17;;
19347;SDS011;9810;52.480;9.806;2024-02-15T13:03:04;3.60;;;1.60;;
19347;SDS011;9810;52.480;9.806;2024-02-15T13:05:34;3.40;;;1.80;;
19347;SDS011;9810;52.480;9.806;2024-02-15T13:08:01;1.30;;;1.20;;
19347;SDS011;9810;52.480;9.806;2024-02-15T13:10:31;1.83;;;1.10;;
19347;SDS011;9810;52.480;9.806;2024-02-15T13:13:00;6.30;;;1.50;;
19347;SDS011;9810;52.480;9.806;2024-02-15T13:15:27;2.73;;;1.37;;
19347;SDS011;9810;52.480;9.806;2024-02-15T13:17:58;2.47;;;1.50;;
19347;SDS011;9810;52.480;9.806;2024-02-15T13:20:26;0.77;;;0.77;;
19347;SDS011;9810;52.480;9.806;2024-02-15T13:22:57;1.33;;;1.00;;
19347;SDS011;9810;52.480;9.806;2024-02-15T13:25:27;2.63;;;1.47;;
19347;SDS011;9810;52.480;9.806;2024-02-15T13:27:54;6.00;;;1.33;;
19347;SDS011;9810;52.480;9.806;2024-02-15T13:30:24;2.37;;;0.80;;
19347;SDS011;9810;52.480;9.806;2024-02-15T13:32:53;2.00;;;1.00;;
19347;SDS011;9810;52.480;9.806;2024-02-15T13:35:20;3.17;;;1.30;;
19347;SDS011;9810;52.480;9.806;2024-02-15T13:37:49;1.17;;;1.07;;
19347;SDS011;9810;52.480;9.806;2024-02-15T13:40:19;2.03;;;1.00;;
19347;SDS011;9810;52.480;9.806;2024-02-15T13:42:49;1.60;;;1.30;;
19347;SDS011;9810;52.480;9.806;2024-02-15T13:45:19;1.30;;;1.10;;
19347;SDS011;9810;52.480;9.806;2024-02-15T13:47:49;1.90;;;1.17;;
19347;SDS011;9810;52.480;9.806;2024-02-15T13:50:17;0.80;;;0.80;;
19347;SDS011;9810;52.480;9.806;2024-02-15T13:52:44;1.97;;;0.90;;
19347;SDS011;9810;52.480;9.806;2024-02-15T13:55:12;1.53;;;1.03;;
19347;SDS011;9810;52.480;9.806;2024-02-15T13:57:40;1.73;;;1.33;;
19347;SDS011;9810;52.480;9.806;2024-02-15T14:00:08;3.13;;;0.80;;
19347;SDS011;9810;52.480;9.806;2024-02-15T14:02:39;2.40;;;1.03;;
19347;SDS011;9810;52.480;9.806;2024-02-15T14:05:09;3.47;;;1.00;;
19347;SDS011;9810;52.480;9.806;2024-02-15T14:07:37;4.03;;;1.30;;
19347;SDS011;9810;52.480;9.806;2024-02-15T14:10:05;1.10;;;1.00;;
19347;SDS011;9810;52.480;9.806;2024-02-15T14:12:31;1.80;;;0.80;;
19347;SDS011;9810;52.480;9.806;2024-02-15T14:14:58;1.90;;;0.90;;
19347;SDS011;9810;52.480;9.806;2024-02-15T14:17:25;1.80;;;0.83;;
19347;SDS011;9810;52.480;9.806;2024-02-15T14:19:54;2.20;;;1.00;;
19347;SDS011;9810;52.480;9.806;2024-02-15T14:22:24;2.43;;;0.80;;
19347;SDS011;9810;52.480;9.806;2024-02-15T14:24:54;5.57;;;1.00;;
19347;SDS011;9810;52.480;9.806;2024-02-15T14:27:21;5.70;;;1.00;;
19347;SDS011;9810;52.480;9.806;2024-02-15T14:29:48;2.13;;;0.70;;
19347;SDS011;9810;52.480;9.806;2024-02-15T14:32:29;1.47;;;1.00;;
19347;SDS011;9810;52.480;9.806;2024-02-15T14:35:14;2.67;;;1.10;;
19347;SDS011;9810;52.480;9.806;2024-02-15T14:37:44;1.40;;;0.97;;
19347;SDS011;9810;52.480;9.806;2024-02-15T14:40:12;1.30;;;0.97;;
19347;SDS011;9810;52.480;9.806;2024-02-15T14:42:40;2.47;;;1.07;;
19347;SDS011;9810;52.480;9.806;2024-02-15T14:45:08;1.27;;;0.90;;
19347;SDS011;9810;52.480;9.806;2024-02-15T14:47:36;1.20;;;1.10;;
19347;SDS011;9810;52.480;9.806;2024-02-15T14:50:04;1.07;;;0.90;;
19347;SDS011;9810;52.480;9.806;2024-02-15T14:52:33;1.73;;;1.00;;
19347;SDS011;9810;52.480;9.806;2024-02-15T14:55:03;2.30;;;1.27;;
19347;SDS011;9810;52.480;9.806;2024-02-15T14:57:32;1.80;;;0.97;;
19347;SDS011;9810;52.480;9.806;2024-02-15T15:00:00;2.93;;;1.00;;
19347;SDS011;9810;52.480;9.806;2024-02-15T15:02:28;2.13;;;1.10;;
19347;SDS011;9810;52.480;9.806;2024-02-15T15:04:56;2.67;;;1.20;;
19347;SDS011;9810;52.480;9.806;2024-02-15T15:07:44;1.73;;;0.97;;
19347;SDS011;9810;52.480;9.806;2024-02-15T15:10:31;5.03;;;1.07;;
19347;SDS011;9810;52.480;9.806;2024-02-15T15:13:16;2.27;;;1.23;;
19347;SDS011;9810;52.480;9.806;2024-02-15T15:15:44;2.53;;;1.07;;
19347;SDS011;9810;52.480;9.806;2024-02-15T15:18:12;2.53;;;1.30;;